Terminal Aerodrome Forecast
Issued by NWS Albany, NY

Home | Current Version | Previous Version | Text Only | Print | Product List | Glossary On
Versions: 1 2 3 4 5 6 7 8 9 10 11 12 13 14 15 16 17 18 19 20 21
000
FTUS41 KALY 291001 AAC
TAFGFL
TAF AMD
KGFL 291001Z 2910/3006 00000KT 6SM BR FEW004
      TEMPO 2910/2911 1SM BR BKN004
     FM291200 VRB03KT P6SM SCT035 BKN120
     FM291700 16007KT P6SM VCSH SCT060 BKN080
     FM300000 19003KT 5SM BR VCSH SCT030 BKN050 OVC090=

USA.gov is the U.S. government's official web portal to all federal, state and local government web resources and services.